Terminal Aerodrome Forecast
Issued by NWS Grand Forks, ND

Home | Current Version | Previous Version | Text Only | Print | Product List | Glossary On
Versions: 1 2 3 4 5 6 7 8 9 10 11 12 13 14 15
263
FTUS43 KFGF 281139
TAFGFK
TAF
KGFK 281139Z 2812/2912 32005KT P6SM SHRA OVC015
      TEMPO 2812/2815 4SM TSRA OVC025CB
     FM281500 32007KT P6SM VCSH OVC020
     FM281800 33011KT P6SM BKN040
     FM282100 32013KT P6SM SCT035
     FM290300 32006KT P6SM SCT250
     FM291100 32005KT P6SM SCT050=

USA.gov is the U.S. government's official web portal to all federal, state and local government web resources and services.